createdAt,value
2017-09-05T00:01:57.746Z,14.48
2017-09-05T00:04:23.591Z,14.47
2017-09-05T00:06:49.359Z,14.55
2017-09-05T00:09:18.002Z,14.37
2017-09-05T00:11:43.764Z,14.50
2017-09-05T00:17:12.682Z,14.47
2017-09-05T00:19:39.251Z,14.40
2017-09-05T00:22:05.100Z,14.38
2017-09-05T00:24:30.911Z,14.44
2017-09-05T00:26:56.670Z,14.40
2017-09-05T00:29:22.460Z,14.46
2017-09-05T00:31:48.820Z,14.53
2017-09-05T00:34:14.625Z,14.61
2017-09-05T00:36:40.391Z,14.67
2017-09-05T00:39:06.143Z,14.74
2017-09-05T00:41:32.148Z,14.68
2017-09-05T00:43:57.916Z,14.59
2017-09-05T00:46:23.670Z,14.63
2017-09-05T00:48:49.470Z,14.47
2017-09-05T00:51:15.231Z,14.53
2017-09-05T00:53:40.983Z,14.62
2017-09-05T00:56:06.882Z,14.47
2017-09-05T00:58:32.655Z,14.42
2017-09-05T01:00:58.414Z,14.54
2017-09-05T01:03:24.242Z,14.42
2017-09-05T01:05:50.046Z,14.43
2017-09-05T01:08:15.798Z,14.43
2017-09-05T01:10:41.570Z,14.35
2017-09-05T01:13:07.375Z,14.41
2017-09-05T01:15:33.131Z,14.32
2017-09-05T01:17:58.910Z,14.30
2017-09-05T01:20:24.707Z,14.37
2017-09-05T01:22:50.471Z,14.38
2017-09-05T01:25:16.343Z,14.29
2017-09-05T01:27:42.107Z,14.30
2017-09-05T01:30:07.883Z,14.33
2017-09-05T01:32:33.671Z,14.22
2017-09-05T01:34:59.566Z,14.25
2017-09-05T01:37:25.326Z,14.24
2017-09-05T01:39:51.094Z,14.27
2017-09-05T01:42:16.871Z,14.29
2017-09-05T01:44:42.762Z,14.24
2017-09-05T01:47:08.520Z,14.23
2017-09-05T01:49:34.320Z,14.31
2017-09-05T01:52:00.091Z,14.32
2017-09-05T01:54:25.950Z,14.27
2017-09-05T01:56:51.728Z,14.30
2017-09-05T01:59:17.580Z,14.34
2017-09-05T02:01:43.367Z,14.37
2017-09-05T02:04:09.185Z,14.30
2017-09-05T02:06:34.943Z,14.26
2017-09-05T02:09:00.727Z,14.11
2017-09-05T02:11:26.498Z,14.24
2017-09-05T02:13:52.246Z,14.16
2017-09-05T02:16:18.035Z,14.31
2017-09-05T02:18:43.794Z,14.36
2017-09-05T02:21:09.590Z,14.32
2017-09-05T02:23:35.968Z,14.34
2017-09-05T02:26:01.765Z,14.32
2017-09-05T02:28:27.544Z,14.27
2017-09-05T02:30:53.942Z,14.29
2017-09-05T02:33:19.695Z,14.25
2017-09-05T02:35:45.470Z,14.35
2017-09-05T02:38:11.215Z,14.38
2017-09-05T02:40:37.004Z,14.47
2017-09-05T02:43:02.839Z,14.42
2017-09-05T02:45:28.615Z,14.44
2017-09-05T02:47:54.418Z,14.38
2017-09-05T02:50:20.211Z,14.45
2017-09-05T02:52:45.962Z,14.53
2017-09-05T02:55:12.074Z,14.54
2017-09-05T02:57:37.855Z,14.47
2017-09-05T03:00:03.751Z,14.33
2017-09-05T03:02:29.511Z,14.24
2017-09-05T03:04:55.290Z,14.41
2017-09-05T03:07:21.035Z,14.43
2017-09-05T03:09:46.843Z,14.42
2017-09-05T03:12:12.587Z,14.36
2017-09-05T03:14:38.375Z,14.37
2017-09-05T03:17:04.144Z,14.24
2017-09-05T03:19:29.895Z,14.35
2017-09-05T03:21:55.692Z,14.37
2017-09-05T03:24:21.446Z,14.33
2017-09-05T03:26:47.234Z,14.37
2017-09-05T03:29:12.998Z,14.46
2017-09-05T03:31:38.830Z,14.33
2017-09-05T03:34:04.607Z,14.48
2017-09-05T03:36:30.399Z,14.26
2017-09-05T03:38:56.189Z,14.23
2017-09-05T03:41:21.951Z,14.21
2017-09-05T03:43:47.713Z,14.17
2017-09-05T03:46:13.457Z,14.25
2017-09-05T03:48:39.246Z,14.10
2017-09-05T03:51:04.999Z,14.12
2017-09-05T03:53:30.869Z,14.21
2017-09-05T03:55:56.619Z,14.15
2017-09-05T03:58:22.431Z,14.11
2017-09-05T04:00:48.179Z,14.24
2017-09-05T04:03:13.961Z,14.06
2017-09-05T04:05:39.698Z,14.10
2017-09-05T04:08:05.478Z,14.15
2017-09-05T04:10:31.315Z,14.18
2017-09-05T04:12:57.076Z,14.24
2017-09-05T04:15:22.890Z,14.16
2017-09-05T04:17:48.663Z,14.11
2017-09-05T04:20:14.556Z,14.22
2017-09-05T04:22:40.347Z,14.20
2017-09-05T04:25:06.159Z,14.16
2017-09-05T04:27:31.999Z,14.12
2017-09-05T04:29:57.754Z,14.21
2017-09-05T04:32:23.559Z,14.19
2017-09-05T04:34:49.360Z,14.23
2017-09-05T04:37:15.123Z,14.24
2017-09-05T04:39:40.935Z,14.22
2017-09-05T04:42:06.702Z,14.44
2017-09-05T04:44:32.479Z,14.28
2017-09-05T04:46:58.219Z,14.31
2017-09-05T04:49:23.979Z,14.34
2017-09-05T04:51:49.851Z,14.42
2017-09-05T04:54:15.617Z,14.38
2017-09-05T04:56:41.387Z,14.31
2017-09-05T04:59:07.127Z,14.32
2017-09-05T05:01:32.947Z,14.31
2017-09-05T05:03:58.751Z,14.26
2017-09-05T05:06:24.502Z,14.23
2017-09-05T05:08:50.287Z,14.29
2017-09-05T05:11:16.050Z,14.27
2017-09-05T05:13:41.811Z,14.37
2017-09-05T05:16:07.714Z,14.29
2017-09-05T05:18:33.549Z,14.35
2017-09-05T05:20:59.323Z,14.39
2017-09-05T05:23:25.190Z,14.42
2017-09-05T05:25:50.936Z,14.44
2017-09-05T05:28:16.727Z,14.50
2017-09-05T05:30:42.511Z,14.45
2017-09-05T05:33:08.290Z,14.45
2017-09-05T05:35:34.096Z,14.48
2017-09-05T05:37:59.867Z,14.49
2017-09-05T05:40:25.638Z,14.54
2017-09-05T05:42:51.386Z,14.53
2017-09-05T05:45:17.165Z,14.62
2017-09-05T05:47:42.939Z,14.73
2017-09-05T05:50:08.702Z,14.69
2017-09-05T05:52:34.563Z,14.79
2017-09-05T05:55:00.332Z,14.67
2017-09-05T05:57:26.210Z,14.80
2017-09-05T05:59:51.999Z,14.74
2017-09-05T06:02:17.838Z,14.91
2017-09-05T06:04:43.696Z,14.94
2017-09-05T06:07:09.454Z,14.80
2017-09-05T06:09:35.339Z,14.93
2017-09-05T06:12:01.118Z,14.89
2017-09-05T06:14:26.897Z,14.95
2017-09-05T06:16:53.685Z,15.09
2017-09-05T06:19:19.454Z,15.11
2017-09-05T06:21:45.423Z,15.12
2017-09-05T06:24:11.235Z,15.30
2017-09-05T06:26:36.997Z,15.25
2017-09-05T06:29:02.780Z,15.36
2017-09-05T06:31:28.555Z,15.59
2017-09-05T06:33:54.311Z,15.72
2017-09-05T06:36:20.098Z,15.85
2017-09-05T06:38:45.930Z,15.89
2017-09-05T06:41:11.721Z,15.81
2017-09-05T06:43:37.527Z,15.91
2017-09-05T06:46:03.305Z,16.19
2017-09-05T06:48:29.124Z,16.41
2017-09-05T06:50:54.904Z,16.67
2017-09-05T06:53:20.687Z,16.77
2017-09-05T06:55:46.438Z,16.67
2017-09-05T06:58:12.183Z,16.98
2017-09-05T07:00:38.375Z,16.99
2017-09-05T07:03:04.139Z,16.91
2017-09-05T07:05:29.883Z,17.99
2017-09-05T07:07:55.680Z,19.04
2017-09-05T07:10:21.450Z,19.73
2017-09-05T07:12:47.203Z,19.15
2017-09-05T07:15:12.959Z,18.92
2017-09-05T07:17:38.863Z,18.63
2017-09-05T07:20:04.614Z,18.32
2017-09-05T07:22:30.383Z,18.46
2017-09-05T07:24:56.146Z,19.53
2017-09-05T07:27:21.923Z,20.57
2017-09-05T07:29:47.700Z,20.83
2017-09-05T07:32:13.458Z,20.07
2017-09-05T07:34:39.306Z,20.52
2017-09-05T07:37:05.084Z,21.39
2017-09-05T07:39:31.007Z,21.92
2017-09-05T07:41:56.760Z,20.84
2017-09-05T07:44:22.519Z,20.27
2017-09-05T07:46:48.309Z,20.00
2017-09-05T07:49:14.071Z,19.78
2017-09-05T07:51:39.915Z,20.13
2017-09-05T07:54:05.654Z,20.74
2017-09-05T07:56:31.415Z,22.07
2017-09-05T07:58:57.211Z,23.71
2017-09-05T08:01:22.987Z,22.76
2017-09-05T08:03:48.788Z,22.15
2017-09-05T08:06:14.568Z,21.17
2017-09-05T08:08:40.358Z,20.83
2017-09-05T08:11:06.247Z,20.52
2017-09-05T08:13:32.010Z,20.85
2017-09-05T08:15:57.775Z,21.85
2017-09-05T08:18:23.559Z,22.10
2017-09-05T08:20:49.338Z,22.06
2017-09-05T08:23:15.222Z,21.34
2017-09-05T08:25:40.975Z,21.01
2017-09-05T08:28:06.727Z,20.18
2017-09-05T08:30:32.519Z,20.97
2017-09-05T08:32:58.291Z,21.21
2017-09-05T08:35:25.123Z,22.62
2017-09-05T08:37:51.210Z,22.34
2017-09-05T08:40:16.975Z,21.62
2017-09-05T08:42:42.732Z,21.55
2017-09-05T08:45:08.540Z,21.52
2017-09-05T08:47:34.295Z,21.83
2017-09-05T08:50:00.111Z,21.39
2017-09-05T08:52:25.863Z,21.73
2017-09-05T08:54:51.627Z,21.99
2017-09-05T08:57:17.416Z,21.74
2017-09-05T08:59:43.225Z,21.52
2017-09-05T09:02:08.983Z,21.92
2017-09-05T09:04:34.722Z,21.61
2017-09-05T09:07:00.499Z,21.95
2017-09-05T09:09:26.270Z,22.36
2017-09-05T09:11:52.058Z,22.23
2017-09-05T09:14:17.826Z,22.30
2017-09-05T09:16:43.591Z,22.37
2017-09-05T09:19:09.407Z,23.07
2017-09-05T09:21:35.162Z,23.56
2017-09-05T09:24:00.915Z,23.81
2017-09-05T09:26:26.703Z,23.39
2017-09-05T09:28:52.463Z,23.94
2017-09-05T09:31:18.235Z,23.86
2017-09-05T09:33:43.986Z,24.24
2017-09-05T09:36:09.831Z,24.08
2017-09-05T09:38:35.609Z,23.88
2017-09-05T09:41:01.362Z,24.78
2017-09-05T09:43:27.148Z,24.24
2017-09-05T09:45:52.927Z,24.56
2017-09-05T09:48:18.754Z,24.39
2017-09-05T09:50:44.710Z,23.87
2017-09-05T09:53:10.487Z,24.73
2017-09-05T09:55:36.297Z,26.02
2017-09-05T09:58:02.087Z,24.63
2017-09-05T10:00:27.867Z,24.70
2017-09-05T10:02:53.668Z,24.47
2017-09-05T10:05:19.420Z,24.79
2017-09-05T10:07:45.420Z,25.04
2017-09-05T10:10:11.184Z,25.46
2017-09-05T10:12:36.971Z,25.36
2017-09-05T10:15:02.855Z,25.03
2017-09-05T10:17:28.620Z,25.60
2017-09-05T10:19:54.391Z,26.15
2017-09-05T10:22:20.170Z,27.12
2017-09-05T10:24:46.054Z,28.80
2017-09-05T10:27:11.867Z,29.11
2017-09-05T10:29:37.607Z,27.60
2017-09-05T10:32:03.430Z,27.37
2017-09-05T10:34:29.220Z,27.88
2017-09-05T10:36:55.099Z,27.71
2017-09-05T10:39:20.880Z,28.18
2017-09-05T10:41:46.659Z,27.89
2017-09-05T10:44:12.427Z,27.32
2017-09-05T10:46:38.287Z,28.90
2017-09-05T10:49:04.067Z,28.43
2017-09-05T10:51:29.826Z,28.56
2017-09-05T10:53:55.633Z,27.50
2017-09-05T10:56:21.415Z,27.21
2017-09-05T10:58:47.464Z,26.63
2017-09-05T11:01:13.438Z,25.53
2017-09-05T11:03:39.208Z,25.91
2017-09-05T11:06:04.960Z,24.74
2017-09-05T11:08:30.760Z,24.52
2017-09-05T11:10:56.604Z,24.44
2017-09-05T11:13:22.350Z,24.48
2017-09-05T11:15:48.151Z,24.28
2017-09-05T11:18:13.907Z,24.08
2017-09-05T11:20:39.782Z,24.46
2017-09-05T11:23:05.594Z,24.27
2017-09-05T11:25:31.342Z,25.67
2017-09-05T11:27:57.098Z,28.11
2017-09-05T11:30:22.879Z,27.83
2017-09-05T11:32:48.733Z,28.72
2017-09-05T11:35:14.490Z,28.20
2017-09-05T11:37:40.267Z,28.08
2017-09-05T11:40:06.035Z,28.23
2017-09-05T11:42:31.808Z,27.00
2017-09-05T11:44:57.572Z,25.71
2017-09-05T11:47:23.323Z,25.46
2017-09-05T11:49:49.103Z,25.79
2017-09-05T11:52:14.866Z,25.50
2017-09-05T11:54:40.634Z,24.80
2017-09-05T11:57:06.428Z,24.94
2017-09-05T11:59:32.186Z,25.09
2017-09-05T12:01:57.991Z,26.65
2017-09-05T12:04:23.841Z,26.07
2017-09-05T12:06:49.586Z,26.28
2017-09-05T12:09:15.348Z,28.64
2017-09-05T12:11:41.118Z,29.14
2017-09-05T12:14:06.925Z,30.20
2017-09-05T12:16:32.738Z,29.60
2017-09-05T12:18:58.494Z,27.18
2017-09-05T12:21:24.285Z,25.99
2017-09-05T12:23:50.035Z,25.90
2017-09-05T12:26:15.937Z,25.95
2017-09-05T12:28:41.699Z,28.06
2017-09-05T12:31:07.543Z,28.20
2017-09-05T12:33:33.335Z,27.73
2017-09-05T12:35:59.135Z,29.03
2017-09-05T12:38:24.931Z,28.45
2017-09-05T12:40:50.820Z,29.84
2017-09-05T12:43:16.662Z,30.21
2017-09-05T12:45:42.611Z,29.57
2017-09-05T12:48:08.377Z,30.54
2017-09-05T12:50:34.251Z,30.57
2017-09-05T12:53:00.143Z,28.29
2017-09-05T12:55:26.258Z,26.64
2017-09-05T12:57:52.018Z,28.19
2017-09-05T13:00:17.840Z,28.35
2017-09-05T13:02:43.626Z,27.68
2017-09-05T13:05:09.371Z,28.04
2017-09-05T13:07:35.167Z,29.80
2017-09-05T13:10:00.928Z,29.35
2017-09-05T13:12:26.711Z,29.05
2017-09-05T13:14:52.578Z,27.66
2017-09-05T13:17:18.332Z,27.34
2017-09-05T13:19:44.119Z,28.34
2017-09-05T13:22:09.874Z,29.57
2017-09-05T13:24:35.679Z,28.56
2017-09-05T13:27:01.527Z,28.19
2017-09-05T13:29:27.313Z,28.42
2017-09-05T13:31:53.075Z,28.97
2017-09-05T13:34:18.903Z,29.69
2017-09-05T13:36:44.650Z,28.48
2017-09-05T13:39:10.407Z,27.59
2017-09-05T13:41:36.190Z,27.61
2017-09-05T13:44:01.991Z,26.94
2017-09-05T13:46:27.782Z,27.42
2017-09-05T13:48:53.603Z,27.99
2017-09-05T13:51:19.359Z,28.12
2017-09-05T13:53:45.183Z,27.85
2017-09-05T13:56:11.090Z,28.53
2017-09-05T13:58:36.847Z,29.86
2017-09-05T14:01:02.643Z,30.24
2017-09-05T14:03:28.490Z,30.40
2017-09-05T14:05:54.291Z,30.72
2017-09-05T14:08:20.111Z,28.42
2017-09-05T14:10:45.958Z,28.58
2017-09-05T14:13:11.738Z,28.31
2017-09-05T14:15:37.484Z,27.99
2017-09-05T14:18:03.270Z,28.87
2017-09-05T14:20:29.235Z,30.58
2017-09-05T14:22:54.986Z,29.19
2017-09-05T14:25:20.744Z,29.29
2017-09-05T14:27:46.608Z,29.80
2017-09-05T14:30:12.447Z,30.25
2017-09-05T14:32:38.284Z,28.79
2017-09-05T14:35:04.072Z,29.03
2017-09-05T14:37:29.911Z,30.04
2017-09-05T14:39:55.731Z,30.01
2017-09-05T14:42:21.540Z,29.74
2017-09-05T14:44:47.306Z,29.69
2017-09-05T14:47:13.071Z,30.02
2017-09-05T14:49:38.807Z,30.72
2017-09-05T14:52:04.579Z,29.89
2017-09-05T14:54:30.412Z,28.28
2017-09-05T14:56:56.199Z,28.38
2017-09-05T14:59:22.058Z,28.33
2017-09-05T15:01:47.859Z,28.06
2017-09-05T15:04:13.654Z,27.40
2017-09-05T15:06:39.431Z,27.09
2017-09-05T15:09:05.205Z,27.13
2017-09-05T15:11:30.983Z,27.09
2017-09-05T15:13:56.756Z,27.39
2017-09-05T15:16:22.510Z,27.41
2017-09-05T15:18:48.891Z,27.05
2017-09-05T15:21:14.724Z,27.43
2017-09-05T15:23:40.467Z,27.78
2017-09-05T15:26:06.208Z,27.10
2017-09-05T15:28:32.027Z,27.07
2017-09-05T15:30:57.786Z,27.40
2017-09-05T15:33:23.606Z,27.27
2017-09-05T15:35:49.360Z,27.20
2017-09-05T15:38:15.135Z,26.98
2017-09-05T15:40:40.922Z,26.67
2017-09-05T15:43:06.708Z,26.22
2017-09-05T15:45:32.515Z,27.25
2017-09-05T15:47:58.320Z,28.10
2017-09-05T15:50:24.082Z,27.00
2017-09-05T15:52:49.835Z,26.48
2017-09-05T15:55:16.257Z,26.33
2017-09-05T15:57:42.059Z,26.12
2017-09-05T16:00:07.896Z,26.02
2017-09-05T16:02:33.720Z,25.81
2017-09-05T16:04:59.547Z,25.91
2017-09-05T16:07:25.347Z,25.80
2017-09-05T16:09:51.202Z,25.40
2017-09-05T16:12:16.957Z,25.35
2017-09-05T16:14:42.769Z,25.16
2017-09-05T16:17:08.563Z,25.50
2017-09-05T16:19:34.319Z,25.27
2017-09-05T16:22:00.096Z,24.99
2017-09-05T16:24:25.889Z,24.98
2017-09-05T16:26:51.736Z,24.94
2017-09-05T16:29:17.641Z,24.95
2017-09-05T16:31:43.588Z,25.00
2017-09-05T16:34:09.483Z,25.05
2017-09-05T16:36:35.247Z,25.04
2017-09-05T16:39:01.078Z,25.90
2017-09-05T16:41:26.865Z,25.95
2017-09-05T16:43:52.633Z,25.32
2017-09-05T16:46:18.393Z,25.37
2017-09-05T16:48:44.175Z,25.41
2017-09-05T16:51:10.007Z,24.99
2017-09-05T16:53:35.901Z,25.16
2017-09-05T16:56:01.718Z,24.98
2017-09-05T16:58:31.607Z,25.01
2017-09-05T17:00:57.420Z,24.95
2017-09-05T17:03:23.363Z,24.78
2017-09-05T17:05:49.237Z,24.52
2017-09-05T17:08:15.064Z,24.40
2017-09-05T17:10:40.917Z,24.19
2017-09-05T17:13:06.731Z,24.13
2017-09-05T17:15:32.543Z,24.13
2017-09-05T17:17:58.420Z,23.93
2017-09-05T17:20:24.424Z,23.93
2017-09-05T17:22:50.371Z,23.89
2017-09-05T17:25:16.199Z,23.78
2017-09-05T17:27:42.020Z,23.82
2017-09-05T17:30:08.027Z,23.81
2017-09-05T17:32:33.983Z,23.72
2017-09-05T17:34:59.938Z,23.61
2017-09-05T17:37:25.922Z,23.54
2017-09-05T17:39:51.784Z,23.57
2017-09-05T17:42:17.838Z,23.48
2017-09-05T17:44:43.760Z,23.49
2017-09-05T17:47:09.729Z,23.39
2017-09-05T17:49:35.552Z,23.42
2017-09-05T17:52:01.554Z,23.21
2017-09-05T17:54:27.510Z,23.20
2017-09-05T17:56:53.339Z,22.90
2017-09-05T17:59:19.284Z,22.82
2017-09-05T18:01:45.258Z,22.84
2017-09-05T18:04:11.164Z,22.59
2017-09-05T18:06:36.981Z,22.67
2017-09-05T18:09:02.948Z,22.58
2017-09-05T18:11:28.954Z,22.43
2017-09-05T18:13:54.811Z,22.46
2017-09-05T18:16:20.612Z,22.52
2017-09-05T18:18:46.536Z,22.38
2017-09-05T18:21:12.593Z,22.30
2017-09-05T18:23:38.639Z,22.31
2017-09-05T18:26:04.634Z,22.16
2017-09-05T18:28:30.485Z,22.15
2017-09-05T18:30:56.339Z,22.12
2017-09-05T18:33:22.151Z,22.01
2017-09-05T18:35:47.983Z,21.92
2017-09-05T18:38:13.804Z,21.96
2017-09-05T18:40:39.603Z,22.02
2017-09-05T18:43:05.445Z,22.01
2017-09-05T18:45:31.285Z,21.91
2017-09-05T18:47:57.119Z,21.88
2017-09-05T18:50:22.895Z,21.90
2017-09-05T18:52:48.681Z,21.81
2017-09-05T18:55:15.673Z,21.79
2017-09-05T18:57:41.567Z,21.82
2017-09-05T19:00:07.339Z,21.66
2017-09-05T19:02:33.295Z,21.72
2017-09-05T19:04:59.283Z,21.72
2017-09-05T19:07:25.286Z,21.75
2017-09-05T19:09:51.120Z,21.76
2017-09-05T19:12:17.044Z,21.69
2017-09-05T19:14:43.030Z,21.74
2017-09-05T19:17:08.840Z,21.60
2017-09-05T19:19:34.807Z,21.56
2017-09-05T19:22:00.784Z,21.57
2017-09-05T19:24:26.636Z,21.51
2017-09-05T19:26:52.637Z,21.50
2017-09-05T19:29:18.579Z,21.52
2017-09-05T19:31:44.514Z,21.47
2017-09-05T19:34:10.418Z,21.38
2017-09-05T19:36:36.432Z,21.17
2017-09-05T19:39:02.279Z,21.22
2017-09-05T19:41:28.063Z,21.22
2017-09-05T19:43:54.055Z,21.27
2017-09-05T19:46:19.805Z,21.16
2017-09-05T19:48:45.728Z,21.15
2017-09-05T19:51:11.699Z,21.03
2017-09-05T19:53:37.502Z,20.99
2017-09-05T19:56:03.452Z,20.99
2017-09-05T19:58:29.268Z,20.97
2017-09-05T20:00:55.124Z,20.99
2017-09-05T20:03:21.063Z,20.79
2017-09-05T20:05:46.880Z,20.82
2017-09-05T20:08:12.700Z,20.73
2017-09-05T20:10:38.649Z,20.80
2017-09-05T20:13:04.464Z,20.75
2017-09-05T20:15:30.446Z,20.80
2017-09-05T20:17:56.308Z,20.79
2017-09-05T20:20:22.128Z,20.60
2017-09-05T20:22:48.234Z,20.63
2017-09-05T20:25:14.249Z,20.64
2017-09-05T20:27:40.178Z,20.59
2017-09-05T20:30:06.003Z,20.55
2017-09-05T20:32:32.098Z,20.54
2017-09-05T20:34:57.883Z,20.54
2017-09-05T20:37:23.912Z,20.47
2017-09-05T20:39:49.732Z,20.41
2017-09-05T20:42:15.568Z,20.42
2017-09-05T20:44:41.384Z,20.59
2017-09-05T20:47:07.231Z,20.39
2017-09-05T20:49:32.980Z,20.46
2017-09-05T20:51:58.768Z,20.39
2017-09-05T20:54:24.631Z,20.35
2017-09-05T20:56:50.425Z,20.33
2017-09-05T20:59:16.243Z,20.36
2017-09-05T21:01:42.088Z,20.37
2017-09-05T21:04:07.884Z,20.51
2017-09-05T21:06:33.794Z,20.47
2017-09-05T21:08:59.637Z,20.26
2017-09-05T21:11:25.516Z,20.27
2017-09-05T21:13:51.391Z,20.26
2017-09-05T21:16:17.213Z,20.01
2017-09-05T21:18:43.019Z,19.95
2017-09-05T21:21:08.803Z,19.88
2017-09-05T21:23:34.551Z,20.02
2017-09-05T21:26:00.374Z,20.04
2017-09-05T21:28:26.352Z,20.10
2017-09-05T21:30:52.108Z,20.19
2017-09-05T21:33:18.190Z,20.20
2017-09-05T21:35:44.004Z,20.19
2017-09-05T21:38:09.824Z,20.20
2017-09-05T21:40:35.709Z,20.23
2017-09-05T21:43:01.528Z,20.20
2017-09-05T21:45:27.387Z,20.14
2017-09-05T21:47:53.230Z,20.16
2017-09-05T21:50:19.128Z,20.15
2017-09-05T21:52:44.953Z,20.12
2017-09-05T21:55:11.275Z,20.16
2017-09-05T21:57:37.120Z,20.10
2017-09-05T22:00:02.949Z,20.04
2017-09-05T22:02:28.819Z,19.97
2017-09-05T22:04:54.608Z,20.03
2017-09-05T22:07:20.373Z,20.00
2017-09-05T22:09:46.142Z,20.03
2017-09-05T22:12:11.951Z,20.00
2017-09-05T22:14:43.831Z,19.98
2017-09-05T22:17:15.847Z,19.73
2017-09-05T22:19:47.711Z,19.76
2017-09-05T22:22:13.516Z,19.88
2017-09-05T22:24:45.449Z,19.89
2017-09-05T22:27:17.400Z,19.84
2017-09-05T22:29:43.183Z,19.91
2017-09-05T22:32:08.935Z,19.84
2017-09-05T22:34:34.721Z,19.87
2017-09-05T22:37:00.519Z,19.82
2017-09-05T22:39:26.379Z,19.89
2017-09-05T22:41:52.145Z,19.87
2017-09-05T22:44:17.964Z,19.80
2017-09-05T22:46:43.715Z,19.57
2017-09-05T22:49:09.462Z,19.58
2017-09-05T22:51:35.227Z,19.42
2017-09-05T22:54:01.010Z,19.57
2017-09-05T22:56:26.774Z,19.63
2017-09-05T22:58:52.555Z,19.66
2017-09-05T23:01:18.410Z,19.62
2017-09-05T23:03:44.163Z,19.64
2017-09-05T23:06:09.939Z,19.64
2017-09-05T23:08:35.719Z,19.64
2017-09-05T23:11:01.480Z,19.47
2017-09-05T23:13:27.239Z,19.32
2017-09-05T23:15:53.007Z,19.24
2017-09-05T23:18:18.763Z,19.13
2017-09-05T23:20:44.545Z,19.15
2017-09-05T23:23:10.299Z,19.14
2017-09-05T23:25:36.099Z,19.06
2017-09-05T23:28:01.839Z,19.04
2017-09-05T23:30:27.688Z,19.08
2017-09-05T23:32:53.484Z,19.03
2017-09-05T23:35:19.287Z,19.06
2017-09-05T23:37:45.079Z,19.00
2017-09-05T23:40:10.892Z,19.01
2017-09-05T23:42:36.647Z,18.99
2017-09-05T23:45:02.445Z,19.01
2017-09-05T23:47:28.195Z,19.00
2017-09-05T23:49:53.979Z,19.08
2017-09-05T23:52:19.725Z,19.06
2017-09-05T23:54:45.468Z,18.99
2017-09-05T23:57:11.274Z,18.98
2017-09-05T23:59:37.030Z,19.00
